createdAt,value
2023-03-28T00:00:17.483Z,1.69
2023-03-28T00:05:21.796Z,1.67
2023-03-28T00:10:25.111Z,1.62
2023-03-28T00:15:30.803Z,1.57
2023-03-28T00:20:33.844Z,1.52
2023-03-28T00:25:42.103Z,1.46
2023-03-28T00:30:46.977Z,1.38
2023-03-28T00:35:52.426Z,1.34
2023-03-28T00:40:57.977Z,1.28
2023-03-28T00:46:09.027Z,1.21
2023-03-28T00:51:15.005Z,1.27
2023-03-28T00:56:23.397Z,1.20
2023-03-28T01:01:28.465Z,1.21
2023-03-28T01:06:33.993Z,1.14
2023-03-28T01:11:41.673Z,1.15
2023-03-28T01:16:51.266Z,1.15
2023-03-28T01:22:17.015Z,1.11
2023-03-28T01:27:25.899Z,1.10
2023-03-28T01:33:07.881Z,1.08
2023-03-28T01:38:19.007Z,1.04
2023-03-28T01:43:35.850Z,1.01
2023-03-28T01:48:47.702Z,0.96
2023-03-28T01:54:00.769Z,0.91
2023-03-28T01:59:10.548Z,0.85
2023-03-28T02:04:35.328Z,0.72
2023-03-28T02:09:44.080Z,0.79
2023-03-28T02:15:04.948Z,0.72
2023-03-28T02:20:11.921Z,0.73
2023-03-28T02:25:46.142Z,0.62
2023-03-28T02:31:11.380Z,0.69
2023-03-28T02:36:31.225Z,0.67
2023-03-28T02:41:46.966Z,0.57
2023-03-28T02:47:01.198Z,0.57
2023-03-28T02:52:15.094Z,0.59
2023-03-28T02:57:28.278Z,0.41
2023-03-28T03:02:33.751Z,0.52
2023-03-28T03:07:37.690Z,0.49
2023-03-28T03:12:42.361Z,0.46
2023-03-28T03:17:45.799Z,0.43
2023-03-28T03:22:49.561Z,0.42
2023-03-28T03:27:53.984Z,0.40
2023-03-28T03:32:58.192Z,0.40
2023-03-28T03:38:03.027Z,0.37
2023-03-28T03:43:07.520Z,0.40
2023-03-28T03:48:12.103Z,0.62
2023-03-28T03:53:15.491Z,0.62
2023-03-28T03:58:29.885Z,0.56
2023-03-28T04:03:40.612Z,0.49
2023-03-28T04:08:43.828Z,0.43
2023-03-28T04:13:51.861Z,0.32
2023-03-28T04:18:54.948Z,0.26
2023-03-28T04:24:01.875Z,0.26
2023-03-28T04:29:18.628Z,0.23
2023-03-28T04:34:41.645Z,0.19
2023-03-28T04:39:49.168Z,0.19
2023-03-28T04:45:14.598Z,0.15
2023-03-28T04:50:19.868Z,0.12
2023-03-28T04:55:24.208Z,0.08
2023-03-28T05:00:29.496Z,0.04
2023-03-28T05:05:32.677Z,0.01
2023-03-28T05:10:35.913Z,-0.07
2023-03-28T05:15:44.870Z,-0.08
2023-03-28T05:21:06.348Z,-0.07
2023-03-28T05:26:09.441Z,-0.07
2023-03-28T05:31:17.551Z,-0.09
2023-03-28T05:36:25.699Z,-0.06
2023-03-28T05:41:28.925Z,-0.03
2023-03-28T05:46:33.651Z,-0.01
2023-03-28T05:51:36.811Z,0.05
2023-03-28T05:56:39.796Z,0.19
2023-03-28T06:01:46.682Z,0.36
2023-03-28T06:06:51.810Z,0.47
2023-03-28T06:12:01.155Z,0.52
2023-03-28T06:17:08.026Z,0.53
2023-03-28T06:22:22.976Z,0.63
2023-03-28T06:27:31.544Z,0.76
2023-03-28T06:32:36.799Z,0.75
2023-03-28T06:37:40.073Z,0.93
2023-03-28T06:42:44.424Z,1.00
2023-03-28T06:47:57.584Z,1.11
2023-03-28T06:53:21.180Z,1.17
2023-03-28T06:58:24.966Z,1.38
2023-03-28T07:03:36.748Z,1.55
2023-03-28T07:08:41.526Z,1.74
2023-03-28T07:13:47.085Z,1.91
2023-03-28T07:18:51.971Z,1.99
2023-03-28T07:23:58.741Z,2.13
2023-03-28T07:29:05.667Z,2.28
2023-03-28T07:34:10.635Z,2.56
2023-03-28T07:39:14.343Z,2.63
2023-03-28T07:44:17.624Z,2.66
2023-03-28T07:49:22.174Z,2.88
2023-03-28T07:54:26.621Z,3.15
2023-03-28T07:59:31.029Z,3.55
2023-03-28T08:04:37.055Z,3.95
2023-03-28T08:09:42.975Z,4.31
2023-03-28T08:14:53.429Z,4.49
2023-03-28T08:20:00.826Z,4.65
2023-03-28T08:25:04.179Z,4.93
2023-03-28T08:30:08.871Z,5.21
2023-03-28T08:35:20.194Z,5.59
2023-03-28T08:40:30.067Z,5.99
2023-03-28T08:45:50.750Z,6.54
2023-03-28T08:51:06.010Z,6.78
2023-03-28T08:56:10.999Z,7.14
2023-03-28T09:01:14.697Z,7.32
2023-03-28T09:06:28.277Z,7.56
2023-03-28T09:11:46.249Z,7.79
2023-03-28T09:17:02.987Z,7.84
2023-03-28T09:22:20.081Z,8.19
2023-03-28T09:27:33.601Z,8.33
2023-03-28T09:32:42.687Z,8.27
2023-03-28T09:37:52.273Z,8.42
2023-03-28T09:43:06.021Z,8.44
2023-03-28T09:48:29.809Z,8.61
2023-03-28T09:53:39.016Z,8.68
2023-03-28T09:58:52.278Z,8.86
2023-03-28T10:04:01.294Z,8.98
2023-03-28T10:09:27.165Z,9.30
2023-03-28T10:14:39.658Z,9.53
2023-03-28T10:19:52.500Z,9.53
2023-03-28T10:25:01.045Z,9.50
2023-03-28T10:30:17.285Z,9.53
2023-03-28T10:35:26.568Z,9.73
2023-03-28T10:41:02.363Z,9.98
2023-03-28T10:46:30.422Z,9.60
2023-03-28T10:51:53.780Z,9.98
2023-03-28T10:57:02.442Z,10.11
2023-03-28T11:02:39.910Z,9.87
2023-03-28T11:08:01.195Z,9.87
2023-03-28T11:13:35.471Z,10.05
2023-03-28T11:18:59.007Z,9.93
2023-03-28T11:24:30.366Z,10.36
2023-03-28T11:29:56.014Z,10.87
2023-03-28T11:35:14.919Z,11.02
2023-03-28T11:40:26.535Z,11.48
2023-03-28T11:45:50.170Z,11.88
2023-03-28T11:51:06.676Z,12.04
2023-03-28T11:56:38.455Z,12.07
2023-03-28T12:01:54.921Z,11.97
2023-03-28T12:07:10.432Z,12.28
2023-03-28T12:12:25.531Z,12.20
2023-03-28T12:17:33.909Z,12.27
2023-03-28T12:22:43.962Z,12.27
2023-03-28T12:28:01.134Z,12.78
2023-03-28T12:33:20.298Z,13.04
2023-03-28T12:38:42.510Z,13.00
2023-03-28T12:44:08.729Z,12.60
2023-03-28T12:49:28.636Z,12.09
2023-03-28T12:54:38.711Z,11.81
2023-03-28T13:00:06.482Z,11.54
2023-03-28T13:18:36.167Z,12.15
2023-03-28T13:23:51.030Z,12.42
2023-03-28T13:29:00.958Z,12.59
2023-03-28T13:34:05.482Z,12.18
2023-03-28T13:39:23.520Z,11.78
2023-03-28T13:44:33.179Z,11.51
2023-03-28T13:49:44.846Z,11.79
2023-03-28T13:54:54.547Z,12.06
2023-03-28T13:59:59.948Z,11.89
2023-03-28T14:05:16.225Z,12.06
2023-03-28T14:10:30.800Z,12.06
2023-03-28T14:15:39.385Z,12.06
2023-03-28T14:20:45.693Z,11.77
2023-03-28T14:25:50.128Z,11.53
2023-03-28T14:30:53.347Z,11.32
2023-03-28T14:36:03.191Z,11.41
2023-03-28T14:41:26.664Z,11.71
2023-03-28T14:46:33.075Z,11.60
2023-03-28T14:51:46.787Z,11.40
2023-03-28T14:56:53.877Z,11.47
2023-03-28T15:01:57.453Z,11.35
2023-03-28T15:07:03.169Z,11.37
2023-03-28T15:12:09.227Z,11.34
2023-03-28T15:17:19.023Z,11.26
2023-03-28T15:22:27.557Z,11.10
2023-03-28T15:27:33.754Z,11.04
2023-03-28T15:32:37.294Z,10.82
2023-03-28T15:37:46.131Z,10.57
2023-03-28T15:42:53.260Z,10.53
2023-03-28T15:47:57.062Z,10.65
2023-03-28T15:53:05.699Z,10.37
2023-03-28T15:58:14.128Z,10.29
2023-03-28T16:03:35.551Z,10.24
2023-03-28T16:08:43.395Z,10.30
2023-03-28T16:13:46.584Z,10.20
2023-03-28T16:19:14.741Z,10.07
2023-03-28T16:24:21.975Z,9.94
2023-03-28T16:29:25.178Z,9.87
2023-03-28T16:34:28.355Z,9.76
2023-03-28T16:39:33.296Z,9.36
2023-03-28T16:44:38.237Z,9.58
2023-03-28T16:49:41.983Z,9.56
2023-03-28T16:54:50.883Z,9.47
2023-03-28T16:59:56.032Z,9.26
2023-03-28T17:04:59.282Z,9.15
2023-03-28T17:10:04.370Z,8.84
2023-03-28T17:15:09.590Z,8.92
2023-03-28T17:20:19.697Z,8.93
2023-03-28T17:25:24.204Z,8.86
2023-03-28T17:30:28.446Z,8.77
2023-03-28T17:35:31.932Z,8.64
2023-03-28T17:40:39.596Z,8.55
2023-03-28T17:45:42.868Z,8.38
2023-03-28T17:50:55.554Z,8.19
2023-03-28T17:56:00.707Z,8.21
2023-03-28T18:01:04.279Z,8.11
2023-03-28T18:06:08.737Z,8.21
2023-03-28T18:11:15.506Z,8.14
2023-03-28T18:16:19.243Z,7.91
2023-03-28T18:21:22.466Z,7.84
2023-03-28T18:26:28.873Z,7.66
2023-03-28T18:31:32.813Z,7.50
2023-03-28T18:36:37.238Z,7.33
2023-03-28T18:41:41.698Z,7.28
2023-03-28T18:46:44.810Z,7.29
2023-03-28T18:51:50.476Z,7.24
2023-03-28T18:56:55.253Z,7.21
2023-03-28T19:01:59.660Z,7.22
2023-03-28T19:07:03.497Z,7.23
2023-03-28T19:12:08.554Z,7.19
2023-03-28T19:17:12.363Z,7.10
2023-03-28T19:22:15.500Z,6.99
2023-03-28T19:27:20.156Z,6.85
2023-03-28T19:32:23.488Z,6.81
2023-03-28T19:37:26.668Z,6.80
2023-03-28T19:42:31.185Z,6.78
2023-03-28T19:47:34.458Z,6.75
2023-03-28T19:52:38.287Z,6.74
2023-03-28T19:57:46.181Z,6.73
2023-03-28T20:02:55.951Z,6.65
2023-03-28T20:07:59.174Z,6.61
2023-03-28T20:13:03.682Z,6.51
2023-03-28T20:18:11.169Z,6.47
2023-03-28T20:23:14.433Z,6.39
2023-03-28T20:28:21.039Z,6.10
2023-03-28T20:33:24.529Z,6.02
2023-03-28T20:38:27.860Z,5.99
2023-03-28T20:43:36.865Z,5.93
2023-03-28T20:48:40.183Z,5.85
2023-03-28T20:53:44.573Z,5.90
2023-03-28T20:58:53.363Z,5.87
2023-03-28T21:04:00.332Z,6.01
2023-03-28T21:09:05.567Z,6.05
2023-03-28T21:14:12.933Z,6.03
2023-03-28T21:19:16.172Z,6.02
2023-03-28T21:24:21.070Z,6.00
2023-03-28T21:29:25.658Z,5.94
2023-03-28T21:34:34.422Z,5.98
2023-03-28T21:39:37.805Z,5.92
2023-03-28T21:44:42.446Z,5.94
2023-03-28T21:49:46.196Z,5.93
2023-03-28T21:54:51.608Z,5.94
2023-03-28T21:59:56.077Z,5.96
2023-03-28T22:04:59.400Z,5.94
2023-03-28T22:10:05.415Z,5.91
2023-03-28T22:15:13.835Z,5.94
2023-03-28T22:20:18.589Z,6.00
2023-03-28T22:25:22.811Z,5.99
2023-03-28T22:30:27.775Z,6.00
2023-03-28T22:35:34.034Z,6.03
2023-03-28T22:40:37.757Z,5.98
2023-03-28T22:45:43.005Z,6.03
2023-03-28T22:50:47.262Z,6.00
2023-03-28T22:55:52.040Z,6.01
2023-03-28T23:00:56.568Z,6.01
2023-03-28T23:06:03.064Z,5.88
2023-03-28T23:11:06.959Z,6.02
2023-03-28T23:16:11.663Z,6.01
2023-03-28T23:21:14.731Z,6.03
2023-03-28T23:26:17.947Z,6.03
2023-03-28T23:31:22.909Z,6.01
2023-03-28T23:36:26.227Z,5.92
2023-03-28T23:41:29.385Z,5.99
2023-03-28T23:46:33.813Z,5.92
2023-03-28T23:51:38.851Z,6.00
2023-03-28T23:56:44.526Z,6.06
